Manitou Springs, Colorado
Current Conditions -  °F | °C
As of 8:56 PM on Friday 24 Oct 2014 (Local Time) from KCWN Reporting Station
Clear Clear  
Wind Chill: 67°   Ceiling: Unl
Heat Index: 67°   Visibility: 10mi
Dew Point: 15°   Wind: 12mph
Humidity: 14%   Direction: 260°W
Pressure: 30.29"   Gusts: NA
Location:  38.86°N, 104.92°W
Report Text: KCWN 250256Z AUTO 26010KT 10SM CLR 19/M09 A3029 RMK AO2 SLP174 T01931093 52012
Loading
Personal Weather Stations






























Interactive Weather Map New forecast layout! Learn more

10-Day Weather Forecast

Advertisements
Track Severe Weather on mobile